Time;durP1;ratioP1;P1;durP2;ratioP2;P2;SDS_P1;SDS_P2;PMS_P1;PMS_P2;Temp;Humidity;BMP_temperature;BMP_pressure;BME280_temperature;BME280_humidity;BME280_pressure;Samples;Min_cycle;Max_cycle;Signal;HPM_P1;HPM_P2
2024/01/29 00:00:04;;;;;;;10.20;7.20;;;;;;;;;;514543;28;1314;-71
2024/01/29 00:00:19;;;;;;;10.38;7.35;;;;;;;;;;515409;28;796;-72
2024/01/29 00:00:35;;;;;;;9.83;7.33;;;;;;;;;;515206;28;1225;-71
2024/01/29 00:00:51;;;;;;;9.43;7.03;;;;;;;;;;515007;28;1065;-71
2024/01/29 00:01:07;;;;;;;9.18;6.97;;;;;;;;;;515260;28;887;-71
2024/01/29 00:01:22;;;;;;;9.10;6.87;;;;;;;;;;515709;28;1344;-71
2024/01/29 00:01:38;;;;;;;9.90;6.72;;;;;;;;;;514791;28;1291;-71
2024/01/29 00:01:53;;;;;;;10.43;6.93;;;;;;;;;;514405;28;1077;-71
2024/01/29 00:02:08;;;;;;;9.77;7.13;;;;;;;;;;514663;28;1058;-71
2024/01/29 00:02:24;;;;;;;9.77;7.10;;;;;;;;;;513086;28;1319;-71
2024/01/29 00:02:39;;;;;;;10.30;7.17;;;;;;;;;;512749;28;1103;-71
2024/01/29 00:02:54;;;;;;;10.73;7.43;;;;;;;;;;513225;28;1030;-71
2024/01/29 00:03:10;;;;;;;9.80;7.47;;;;;;;;;;512336;28;1764;-71
2024/01/29 00:03:25;;;;;;;8.83;7.00;;;;;;;;;;513364;28;840;-71
2024/01/29 00:03:40;;;;;;;9.38;7.07;;;;;;;;;;516093;28;1296;-71
2024/01/29 00:03:55;;;;;;;10.10;7.43;;;;;;;;;;517103;28;1053;-71
2024/01/29 00:04:11;;;;;;;9.83;7.40;;;;;;;;;;516928;28;909;-71
2024/01/29 00:04:26;;;;;;;9.20;7.27;;;;;;;;;;517273;28;1282;-71
2024/01/29 00:04:41;;;;;;;10.23;7.43;;;;;;;;;;517439;28;1278;-71
2024/01/29 00:04:57;;;;;;;11.07;7.70;;;;;;;;;;519122;28;1025;-71
2024/01/29 00:05:12;;;;;;;10.27;7.50;;;;;;;;;;517025;28;993;-71
2024/01/29 00:05:28;;;;;;;11.33;7.47;;;;;;;;;;516982;28;1164;-70
2024/01/29 00:05:44;;;;;;;10.50;7.30;;;;;;;;;;515722;28;1503;-71
2024/01/29 00:05:59;;;;;;;10.10;7.05;;;;;;;;;;515046;28;1405;-71
2024/01/29 00:06:15;;;;;;;10.83;7.10;;;;;;;;;;515265;28;1229;-71
2024/01/29 00:06:30;;;;;;;10.27;7.13;;;;;;;;;;517170;28;982;-71
2024/01/29 00:06:45;;;;;;;10.35;7.18;;;;;;;;;;516910;28;1212;-71
2024/01/29 00:07:01;;;;;;;9.53;7.13;;;;;;;;;;516639;28;1188;-71
2024/01/29 00:07:16;;;;;;;10.05;7.30;;;;;;;;;;517457;28;949;-71
2024/01/29 00:07:31;;;;;;;10.80;7.20;;;;;;;;;;517520;28;749;-71
2024/01/29 00:07:46;;;;;;;10.17;7.27;;;;;;;;;;517030;28;1173;-71
2024/01/29 00:08:02;;;;;;;10.37;7.53;;;;;;;;;;517060;28;903;-71
2024/01/29 00:08:18;;;;;;;10.02;7.25;;;;;;;;;;514871;28;1926;-71
2024/01/29 00:08:33;;;;;;;10.43;7.30;;;;;;;;;;514804;28;1229;-71
2024/01/29 00:08:52;;;;;;;10.13;7.43;;;;;;;;;;514715;28;1159;-71
2024/01/29 00:09:07;;;;;;;9.02;7.15;;;;;;;;;;515228;28;898;-71
2024/01/29 00:09:23;;;;;;;9.47;7.20;;;;;;;;;;517200;28;1346;-71
2024/01/29 00:09:38;;;;;;;10.48;7.30;;;;;;;;;;514997;28;1281;-71
2024/01/29 00:09:54;;;;;;;10.82;7.55;;;;;;;;;;515054;28;1271;-71
2024/01/29 00:10:09;;;;;;;9.47;7.20;;;;;;;;;;515567;28;1084;-71
2024/01/29 00:10:25;;;;;;;9.27;6.90;;;;;;;;;;515010;28;1390;-71
2024/01/29 00:10:41;;;;;;;9.45;7.10;;;;;;;;;;515000;28;1115;-71
2024/01/29 00:10:56;;;;;;;9.68;7.07;;;;;;;;;;512980;28;1322;-71
2024/01/29 00:11:11;;;;;;;9.67;6.80;;;;;;;;;;512454;28;1368;-71
2024/01/29 00:11:26;;;;;;;8.73;6.40;;;;;;;;;;509495;29;1235;-71
2024/01/29 00:11:42;;;;;;;8.38;6.63;;;;;;;;;;511646;28;1176;-71
2024/01/29 00:11:57;;;;;;;8.27;6.80;;;;;;;;;;512511;28;1210;-71
2024/01/29 00:12:14;;;;;;;8.67;6.67;;;;;;;;;;512387;28;1795;-71
2024/01/29 00:12:29;;;;;;;9.35;6.70;;;;;;;;;;515024;28;1004;-71
2024/01/29 00:12:44;;;;;;;9.37;6.63;;;;;;;;;;515191;28;1067;-71
2024/01/29 00:13:00;;;;;;;9.00;6.47;;;;;;;;;;517201;28;862;-71
2024/01/29 00:13:15;;;;;;;8.87;6.40;;;;;;;;;;516901;28;1045;-71
2024/01/29 00:13:30;;;;;;;8.70;6.50;;;;;;;;;;515413;28;1610;-71
2024/01/29 00:13:46;;;;;;;9.00;6.60;;;;;;;;;;518111;28;1226;-71
2024/01/29 00:14:01;;;;;;;9.10;6.60;;;;;;;;;;517135;28;1190;-71
2024/01/29 00:14:16;;;;;;;8.80;6.40;;;;;;;;;;517170;28;882;-71
2024/01/29 00:14:32;;;;;;;8.43;6.32;;;;;;;;;;516943;28;806;-71
2024/01/29 00:14:47;;;;;;;7.93;6.43;;;;;;;;;;514839;28;1224;-71
2024/01/29 00:15:03;;;;;;;7.80;6.32;;;;;;;;;;515263;28;819;-71
2024/01/29 00:15:18;;;;;;;8.50;6.03;;;;;;;;;;515327;28;791;-71
2024/01/29 00:15:34;;;;;;;8.95;6.20;;;;;;;;;;515060;28;799;-71
2024/01/29 00:15:50;;;;;;;9.20;6.28;;;;;;;;;;515230;28;973;-71
2024/01/29 00:16:05;;;;;;;9.47;6.40;;;;;;;;;;517304;28;815;-71
2024/01/29 00:16:21;;;;;;;10.13;6.78;;;;;;;;;;517225;28;796;-71
2024/01/29 00:16:36;;;;;;;10.70;6.73;;;;;;;;;;516937;28;768;-71
2024/01/29 00:16:51;;;;;;;8.83;6.43;;;;;;;;;;516338;28;1077;-71
2024/01/29 00:17:07;;;;;;;7.75;6.13;;;;;;;;;;516991;28;905;-71
2024/01/29 00:17:22;;;;;;;7.68;6.00;;;;;;;;;;517246;28;1446;-71
2024/01/29 00:17:38;;;;;;;7.50;6.00;;;;;;;;;;517048;28;998;-71
2024/01/29 00:17:53;;;;;;;7.97;5.93;;;;;;;;;;517037;28;1227;-71
2024/01/29 00:18:08;;;;;;;10.00;6.40;;;;;;;;;;517151;28;1173;-70
2024/01/29 00:18:23;;;;;;;9.65;6.32;;;;;;;;;;516125;28;1852;-71
2024/01/29 00:18:39;;;;;;;8.20;5.87;;;;;;;;;;515607;28;1028;-71
2024/01/29 00:18:54;;;;;;;8.13;5.80;;;;;;;;;;518789;28;1234;-71
2024/01/29 00:19:09;;;;;;;7.88;5.85;;;;;;;;;;519292;28;870;-71
2024/01/29 00:19:25;;;;;;;8.13;5.93;;;;;;;;;;519132;28;1045;-71
2024/01/29 00:19:40;;;;;;;8.37;5.90;;;;;;;;;;518823;28;1422;-70
2024/01/29 00:19:55;;;;;;;9.15;6.10;;;;;;;;;;517078;28;1202;-71
2024/01/29 00:20:11;;;;;;;9.53;6.27;;;;;;;;;;517146;28;1040;-71
2024/01/29 00:20:26;;;;;;;9.10;6.05;;;;;;;;;;515437;28;1519;-71
2024/01/29 00:20:42;;;;;;;7.82;5.85;;;;;;;;;;514790;28;1403;-71
2024/01/29 00:20:58;;;;;;;7.50;5.70;;;;;;;;;;514574;28;1355;-71
2024/01/29 00:21:13;;;;;;;8.07;5.80;;;;;;;;;;512836;28;1226;-71
2024/01/29 00:21:28;;;;;;;7.13;5.53;;;;;;;;;;510920;29;1254;-71
2024/01/29 00:21:43;;;;;;;7.60;5.50;;;;;;;;;;511071;28;1105;-71
2024/01/29 00:21:59;;;;;;;8.70;5.73;;;;;;;;;;510756;29;884;-71
2024/01/29 00:22:15;;;;;;;9.65;5.82;;;;;;;;;;510678;28;1937;-71
2024/01/29 00:22:30;;;;;;;9.43;5.75;;;;;;;;;;512935;28;1245;-71
2024/01/29 00:22:46;;;;;;;8.37;5.27;;;;;;;;;;512619;28;1024;-71
2024/01/29 00:23:01;;;;;;;7.50;5.00;;;;;;;;;;511437;28;1321;-71
2024/01/29 00:23:16;;;;;;;7.75;5.22;;;;;;;;;;514830;28;1332;-71
2024/01/29 00:23:32;;;;;;;9.00;5.67;;;;;;;;;;515126;28;804;-71
2024/01/29 00:23:47;;;;;;;8.87;5.77;;;;;;;;;;514833;28;1321;-71
2024/01/29 00:24:02;;;;;;;8.47;5.80;;;;;;;;;;514967;28;1505;-71
2024/01/29 00:24:18;;;;;;;8.23;5.53;;;;;;;;;;515256;28;1040;-71
2024/01/29 00:24:33;;;;;;;7.60;5.38;;;;;;;;;;517035;28;1219;-71
2024/01/29 00:24:48;;;;;;;7.23;5.40;;;;;;;;;;514841;28;1157;-71
2024/01/29 00:25:04;;;;;;;7.67;5.40;;;;;;;;;;517031;28;1308;-71
2024/01/29 00:25:19;;;;;;;7.97;5.55;;;;;;;;;;517112;28;942;-71
2024/01/29 00:25:35;;;;;;;8.00;5.50;;;;;;;;;;517190;28;827;-71
2024/01/29 00:25:50;;;;;;;8.75;5.70;;;;;;;;;;516837;28;1095;-71
2024/01/29 00:26:05;;;;;;;8.40;5.70;;;;;;;;;;515037;28;1290;-71
2024/01/29 00:26:21;;;;;;;7.30;5.33;;;;;;;;;;512944;28;1671;-71
2024/01/29 00:26:39;;;;;;;7.50;5.30;;;;;;;;;;512816;28;1351;-71
2024/01/29 00:26:54;;;;;;;6.95;5.30;;;;;;;;;;513101;28;978;-71
2024/01/29 00:27:10;;;;;;;7.10;5.30;;;;;;;;;;515066;28;882;-71
2024/01/29 00:27:26;;;;;;;7.30;5.38;;;;;;;;;;514770;28;1269;-71
2024/01/29 00:27:41;;;;;;;7.63;5.50;;;;;;;;;;514156;28;1667;-71
2024/01/29 00:27:56;;;;;;;8.10;5.70;;;;;;;;;;513013;28;1353;-71
2024/01/29 00:28:12;;;;;;;8.85;5.90;;;;;;;;;;514093;28;1972;-71
2024/01/29 00:28:28;;;;;;;7.83;5.47;;;;;;;;;;517259;28;1033;-72
2024/01/29 00:28:43;;;;;;;7.28;5.32;;;;;;;;;;516685;28;1284;-71
2024/01/29 00:28:58;;;;;;;7.47;5.60;;;;;;;;;;516774;28;1201;-71
2024/01/29 00:29:14;;;;;;;7.67;5.70;;;;;;;;;;517209;28;1150;-71
2024/01/29 00:29:29;;;;;;;8.60;5.70;;;;;;;;;;517273;28;1421;-71
2024/01/29 00:29:44;;;;;;;9.13;5.80;;;;;;;;;;514814;28;1209;-71
2024/01/29 00:30:01;;;;;;;8.77;5.80;;;;;;;;;;515081;28;1413;-71
2024/01/29 00:30:17;;;;;;;7.60;5.60;;;;;;;;;;515159;28;907;-71
2024/01/29 00:30:32;;;;;;;7.20;5.50;;;;;;;;;;515099;28;946;-71
2024/01/29 00:30:47;;;;;;;7.63;5.40;;;;;;;;;;514925;28;1013;-71
2024/01/29 00:31:03;;;;;;;7.82;5.35;;;;;;;;;;515005;28;820;-71
2024/01/29 00:31:18;;;;;;;6.90;5.20;;;;;;;;;;512817;28;1245;-71
2024/01/29 00:31:33;;;;;;;7.43;5.30;;;;;;;;;;513355;28;1208;-71
2024/01/29 00:31:49;;;;;;;8.45;5.40;;;;;;;;;;514852;28;1304;-71
2024/01/29 00:32:05;;;;;;;8.27;5.40;;;;;;;;;;516805;28;1147;-71
2024/01/29 00:32:20;;;;;;;7.70;5.40;;;;;;;;;;517195;28;848;-71
2024/01/29 00:32:35;;;;;;;7.40;5.10;;;;;;;;;;514650;28;1701;-71
2024/01/29 00:32:51;;;;;;;7.40;5.10;;;;;;;;;;512854;28;1345;-71
2024/01/29 00:33:06;;;;;;;7.43;5.20;;;;;;;;;;513185;28;942;-72
2024/01/29 00:33:21;;;;;;;8.30;5.23;;;;;;;;;;515104;28;827;-71
2024/01/29 00:33:37;;;;;;;7.93;5.30;;;;;;;;;;514962;28;1234;-71
2024/01/29 00:33:52;;;;;;;6.83;5.23;;;;;;;;;;515101;28;1136;-71
2024/01/29 00:34:07;;;;;;;6.90;5.30;;;;;;;;;;515225;28;867;-71
2024/01/29 00:34:23;;;;;;;7.05;5.20;;;;;;;;;;515243;28;1124;-71
2024/01/29 00:34:39;;;;;;;7.90;5.20;;;;;;;;;;517021;28;985;-71
2024/01/29 00:34:54;;;;;;;8.63;5.32;;;;;;;;;;517139;28;1164;-71
2024/01/29 00:35:09;;;;;;;8.18;5.30;;;;;;;;;;517133;28;843;-71
2024/01/29 00:35:25;;;;;;;8.30;5.40;;;;;;;;;;517039;28;1346;-71
2024/01/29 00:35:40;;;;;;;8.53;5.53;;;;;;;;;;516689;28;1355;-71
2024/01/29 00:35:55;;;;;;;8.23;5.38;;;;;;;;;;516981;28;922;-71
2024/01/29 00:36:11;;;;;;;8.17;5.30;;;;;;;;;;517119;28;871;-71
2024/01/29 00:36:28;;;;;;;7.63;5.30;;;;;;;;;;515186;28;1304;-71
2024/01/29 00:36:43;;;;;;;7.45;5.40;;;;;;;;;;514256;28;1921;-71
2024/01/29 00:36:58;;;;;;;7.67;5.40;;;;;;;;;;514447;28;1206;-71
2024/01/29 00:37:13;;;;;;;7.25;5.13;;;;;;;;;;515207;28;1121;-71
2024/01/29 00:37:29;;;;;;;7.03;5.20;;;;;;;;;;517119;28;918;-71
2024/01/29 00:37:44;;;;;;;7.65;5.38;;;;;;;;;;516666;28;1037;-71
2024/01/29 00:37:59;;;;;;;8.03;5.40;;;;;;;;;;516961;28;886;-71
2024/01/29 00:38:15;;;;;;;7.77;5.30;;;;;;;;;;514980;28;1257;-71
2024/01/29 00:38:30;;;;;;;7.33;5.30;;;;;;;;;;516915;28;1162;-71
2024/01/29 00:38:46;;;;;;;7.30;5.00;;;;;;;;;;514674;28;1301;-71
2024/01/29 00:39:06;;;;;;;7.27;4.90;;;;;;;;;;514772;28;1213;-71
2024/01/29 00:39:22;;;;;;;7.97;5.20;;;;;;;;;;514885;28;902;-71
2024/01/29 00:39:37;;;;;;;7.67;5.13;;;;;;;;;;515116;28;819;-71
2024/01/29 00:39:52;;;;;;;8.15;5.10;;;;;;;;;;514931;28;1128;-71
2024/01/29 00:40:09;;;;;;;8.52;5.20;;;;;;;;;;515244;28;903;-71
2024/01/29 00:40:25;;;;;;;7.07;5.10;;;;;;;;;;515156;28;1326;-71
2024/01/29 00:40:40;;;;;;;7.13;5.20;;;;;;;;;;516167;28;1017;-71
2024/01/29 00:40:55;;;;;;;8.15;5.50;;;;;;;;;;516903;28;1148;-71
2024/01/29 00:41:11;;;;;;;7.70;5.33;;;;;;;;;;515102;28;1231;-71
2024/01/29 00:41:26;;;;;;;7.45;5.10;;;;;;;;;;514748;28;1172;-71
2024/01/29 00:41:41;;;;;;;8.00;5.50;;;;;;;;;;513848;28;1781;-71
2024/01/29 00:41:57;;;;;;;8.33;5.40;;;;;;;;;;514048;28;1275;-71
2024/01/29 00:42:12;;;;;;;8.00;5.13;;;;;;;;;;515076;28;1175;-71
2024/01/29 00:42:28;;;;;;;7.75;5.22;;;;;;;;;;515202;28;906;-71
2024/01/29 00:42:43;;;;;;;7.30;5.37;;;;;;;;;;515268;28;1332;-71
2024/01/29 00:42:59;;;;;;;6.93;5.40;;;;;;;;;;517040;28;1076;-71
2024/01/29 00:43:15;;;;;;;6.53;5.18;;;;;;;;;;516678;28;1172;-71
2024/01/29 00:43:30;;;;;;;6.90;5.20;;;;;;;;;;516532;28;1138;-71
2024/01/29 00:43:45;;;;;;;7.70;5.40;;;;;;;;;;516606;28;1431;-71
2024/01/29 00:44:00;;;;;;;7.27;5.23;;;;;;;;;;516679;28;1096;-71
2024/01/29 00:44:17;;;;;;;7.00;5.07;;;;;;;;;;515178;28;1191;-71
2024/01/29 00:44:32;;;;;;;8.50;5.03;;;;;;;;;;515483;28;855;-71
2024/01/29 00:44:49;;;;;;;8.97;5.27;;;;;;;;;;514732;28;1816;-71
2024/01/29 00:45:05;;;;;;;7.82;5.32;;;;;;;;;;515131;28;918;-71
2024/01/29 00:45:20;;;;;;;7.05;5.15;;;;;;;;;;515130;28;1059;-71
2024/01/29 00:45:35;;;;;;;6.57;5.20;;;;;;;;;;515408;28;815;-71
2024/01/29 00:45:51;;;;;;;6.70;5.10;;;;;;;;;;516922;28;934;-71
2024/01/29 00:46:06;;;;;;;7.57;5.03;;;;;;;;;;516903;28;1133;-71
2024/01/29 00:46:21;;;;;;;8.20;4.87;;;;;;;;;;517171;28;760;-71
2024/01/29 00:46:40;;;;;;;7.23;4.63;;;;;;;;;;517263;28;879;-71
2024/01/29 00:46:55;;;;;;;7.45;4.97;;;;;;;;;;516510;28;1082;-71
2024/01/29 00:47:11;;;;;;;7.00;4.97;;;;;;;;;;517284;28;1148;-71
2024/01/29 00:47:26;;;;;;;6.82;4.90;;;;;;;;;;519061;28;1343;-71
2024/01/29 00:47:41;;;;;;;7.63;4.93;;;;;;;;;;518937;28;1201;-71
2024/01/29 00:47:57;;;;;;;8.23;5.00;;;;;;;;;;518993;28;879;-71
2024/01/29 00:48:12;;;;;;;7.55;4.95;;;;;;;;;;519143;28;2000;-71
2024/01/29 00:48:27;;;;;;;6.90;4.90;;;;;;;;;;517003;28;1329;-71
2024/01/29 00:48:42;;;;;;;6.57;4.80;;;;;;;;;;516800;28;1266;-71
2024/01/29 00:48:58;;;;;;;6.95;4.80;;;;;;;;;;515221;28;894;-71
2024/01/29 00:49:13;;;;;;;7.23;5.00;;;;;;;;;;515009;28;1109;-71
2024/01/29 00:49:31;;;;;;;6.80;5.00;;;;;;;;;;515139;28;799;-71
2024/01/29 00:49:47;;;;;;;7.07;5.10;;;;;;;;;;515980;28;1037;-71
2024/01/29 00:50:03;;;;;;;7.27;5.17;;;;;;;;;;516719;28;1303;-71
2024/01/29 00:50:19;;;;;;;7.43;4.93;;;;;;;;;;517140;28;2020;-71
2024/01/29 00:50:34;;;;;;;8.05;4.97;;;;;;;;;;518209;28;1815;-70
2024/01/29 00:50:50;;;;;;;7.75;5.15;;;;;;;;;;517927;28;1140;-70
2024/01/29 00:51:05;;;;;;;7.67;5.27;;;;;;;;;;517909;28;1402;-70
2024/01/29 00:51:20;;;;;;;7.73;5.10;;;;;;;;;;515582;28;1344;-71
2024/01/29 00:51:35;;;;;;;7.23;4.90;;;;;;;;;;514890;28;1203;-70
2024/01/29 00:51:51;;;;;;;6.83;4.90;;;;;;;;;;513640;28;1873;-71
2024/01/29 00:52:06;;;;;;;6.13;4.60;;;;;;;;;;514470;28;1872;-70
2024/01/29 00:52:22;;;;;;;5.82;4.60;;;;;;;;;;513122;28;1205;-70
2024/01/29 00:52:37;;;;;;;6.17;4.90;;;;;;;;;;514953;28;745;-70
2024/01/29 00:52:53;;;;;;;5.75;4.70;;;;;;;;;;514871;28;1042;-71
2024/01/29 00:53:08;;;;;;;6.07;4.60;;;;;;;;;;514850;28;1028;-70
2024/01/29 00:53:23;;;;;;;6.63;4.77;;;;;;;;;;515467;28;915;-70
2024/01/29 00:53:38;;;;;;;6.03;4.60;;;;;;;;;;517055;28;1086;-71
2024/01/29 00:53:54;;;;;;;6.63;4.60;;;;;;;;;;516785;28;1531;-70
2024/01/29 00:54:09;;;;;;;6.80;4.90;;;;;;;;;;514916;28;1437;-71
2024/01/29 00:54:25;;;;;;;6.50;4.90;;;;;;;;;;514961;28;1121;-70
2024/01/29 00:54:40;;;;;;;8.30;5.00;;;;;;;;;;514820;28;1187;-71
2024/01/29 00:54:55;;;;;;;8.07;4.83;;;;;;;;;;515057;28;1085;-70
2024/01/29 00:55:11;;;;;;;6.55;4.70;;;;;;;;;;512846;28;1290;-70
2024/01/29 00:55:27;;;;;;;6.47;4.80;;;;;;;;;;513194;28;949;-70
2024/01/29 00:55:45;;;;;;;6.83;4.73;;;;;;;;;;513335;28;958;-70
2024/01/29 00:56:01;;;;;;;6.53;4.55;;;;;;;;;;514827;28;1058;-70
2024/01/29 00:56:16;;;;;;;7.20;4.67;;;;;;;;;;514978;28;1240;-70
2024/01/29 00:56:31;;;;;;;7.85;4.85;;;;;;;;;;515377;28;2292;-71
2024/01/29 00:56:47;;;;;;;7.80;4.90;;;;;;;;;;516636;28;1815;-73
2024/01/29 00:57:02;;;;;;;8.03;5.03;;;;;;;;;;518279;28;1867;-70
2024/01/29 00:57:19;;;;;;;7.37;4.70;;;;;;;;;;519175;28;989;-71
2024/01/29 00:57:34;;;;;;;6.32;4.57;;;;;;;;;;517897;28;2011;-70
2024/01/29 00:57:49;;;;;;;6.10;4.50;;;;;;;;;;512296;28;1578;-70
2024/01/29 00:58:05;;;;;;;7.00;4.70;;;;;;;;;;514720;28;1859;-71
2024/01/29 00:58:21;;;;;;;7.57;4.90;;;;;;;;;;514758;28;1890;-70
2024/01/29 00:58:36;;;;;;;7.20;4.70;;;;;;;;;;514570;28;1394;-71
2024/01/29 00:58:51;;;;;;;6.90;4.68;;;;;;;;;;515030;28;977;-70
2024/01/29 00:59:07;;;;;;;7.03;4.73;;;;;;;;;;514880;28;1427;-71
2024/01/29 00:59:22;;;;;;;7.53;5.00;;;;;;;;;;515047;28;820;-71
2024/01/29 00:59:37;;;;;;;6.90;4.95;;;;;;;;;;515315;28;1006;-71
2024/01/29 00:59:55;;;;;;;6.53;4.63;;;;;;;;;;516741;28;1347;-72
2024/01/29 01:00:11;;;;;;;6.30;4.60;;;;;;;;;;514802;28;926;-71
2024/01/29 01:00:26;;;;;;;6.18;4.50;;;;;;;;;;515078;28;1284;-71
2024/01/29 01:00:41;;;;;;;7.07;4.60;;;;;;;;;;515013;28;1181;-70
2024/01/29 01:00:57;;;;;;;7.73;4.80;;;;;;;;;;515156;28;1049;-70
2024/01/29 01:01:12;;;;;;;7.85;4.72;;;;;;;;;;515074;28;998;-70
2024/01/29 01:01:27;;;;;;;8.27;4.70;;;;;;;;;;514915;28;1208;-71
2024/01/29 01:01:43;;;;;;;7.47;4.73;;;;;;;;;;514919;28;1001;-70
2024/01/29 01:01:58;;;;;;;6.30;4.63;;;;;;;;;;514529;28;1358;-71
2024/01/29 01:02:13;;;;;;;6.57;4.43;;;;;;;;;;517137;28;803;-71
2024/01/29 01:02:29;;;;;;;6.80;4.57;;;;;;;;;;519126;28;878;-71
2024/01/29 01:02:44;;;;;;;7.33;5.07;;;;;;;;;;516865;28;1349;-71
2024/01/29 01:02:59;;;;;;;7.35;5.20;;;;;;;;;;514899;28;1208;-71
2024/01/29 01:03:14;;;;;;;7.40;5.43;;;;;;;;;;515109;28;894;-71
2024/01/29 01:03:30;;;;;;;8.13;5.67;;;;;;;;;;513141;28;879;-71
2024/01/29 01:03:45;;;;;;;8.75;5.75;;;;;;;;;;512890;28;1030;-71
2024/01/29 01:04:00;;;;;;;9.60;6.07;;;;;;;;;;512651;28;1015;-71
2024/01/29 01:04:16;;;;;;;9.07;6.10;;;;;;;;;;512607;28;1227;-71
2024/01/29 01:04:31;;;;;;;8.38;6.10;;;;;;;;;;512829;28;994;-70
2024/01/29 01:04:47;;;;;;;8.80;6.10;;;;;;;;;;512454;28;1118;-70
2024/01/29 01:05:02;;;;;;;8.27;6.00;;;;;;;;;;512927;28;1001;-70
2024/01/29 01:05:17;;;;;;;7.63;5.93;;;;;;;;;;513163;28;1454;-70
2024/01/29 01:05:33;;;;;;;8.27;6.03;;;;;;;;;;514791;28;951;-71
2024/01/29 01:05:48;;;;;;;8.45;6.20;;;;;;;;;;515857;28;2618;-73
2024/01/29 01:06:04;;;;;;;8.67;6.00;;;;;;;;;;515117;28;1183;-73
2024/01/29 01:06:19;;;;;;;8.60;5.70;;;;;;;;;;517027;28;1037;-70
2024/01/29 01:06:34;;;;;;;8.23;5.80;;;;;;;;;;516944;28;1141;-71
2024/01/29 01:06:50;;;;;;;8.45;6.00;;;;;;;;;;517835;28;988;-70
2024/01/29 01:07:05;;;;;;;8.20;5.90;;;;;;;;;;518699;28;862;-71
2024/01/29 01:07:21;;;;;;;8.27;5.70;;;;;;;;;;514849;28;1786;-70
2024/01/29 01:07:36;;;;;;;9.30;6.20;;;;;;;;;;517120;28;752;-70
2024/01/29 01:07:51;;;;;;;8.83;6.37;;;;;;;;;;516768;28;1246;-71
2024/01/29 01:08:07;;;;;;;7.70;5.97;;;;;;;;;;514954;28;1512;-70
2024/01/29 01:08:22;;;;;;;7.83;6.00;;;;;;;;;;514415;28;1910;-70
2024/01/29 01:08:38;;;;;;;8.20;5.97;;;;;;;;;;514592;28;1313;-72
2024/01/29 01:08:53;;;;;;;8.55;6.05;;;;;;;;;;514824;28;1116;-70
2024/01/29 01:09:09;;;;;;;8.57;6.20;;;;;;;;;;514872;28;1266;-71
2024/01/29 01:09:24;;;;;;;8.77;6.20;;;;;;;;;;515216;28;899;-72
2024/01/29 01:09:39;;;;;;;9.27;6.40;;;;;;;;;;514834;28;1373;-73
2024/01/29 01:09:55;;;;;;;8.93;6.50;;;;;;;;;;515213;28;1278;-72
2024/01/29 01:10:11;;;;;;;8.50;6.15;;;;;;;;;;517144;28;990;-72
2024/01/29 01:10:27;;;;;;;8.70;5.97;;;;;;;;;;516696;28;1444;-74
2024/01/29 01:10:42;;;;;;;8.85;6.20;;;;;;;;;;516522;28;1293;-72
2024/01/29 01:10:57;;;;;;;8.83;6.27;;;;;;;;;;516989;28;1002;-73
2024/01/29 01:11:13;;;;;;;8.30;6.13;;;;;;;;;;516754;28;1608;-73
2024/01/29 01:11:28;;;;;;;7.67;6.07;;;;;;;;;;517063;28;919;-71
2024/01/29 01:11:43;;;;;;;7.50;6.00;;;;;;;;;;516885;28;914;-72
2024/01/29 01:11:59;;;;;;;7.97;5.88;;;;;;;;;;514561;28;1371;-73
2024/01/29 01:12:14;;;;;;;8.27;5.80;;;;;;;;;;515196;28;751;-72
2024/01/29 01:12:29;;;;;;;8.77;5.90;;;;;;;;;;514919;28;1362;-73
2024/01/29 01:12:44;;;;;;;8.57;5.90;;;;;;;;;;514397;28;1272;-72
2024/01/29 01:13:00;;;;;;;8.20;5.80;;;;;;;;;;512873;28;1247;-72
2024/01/29 01:13:15;;;;;;;8.20;5.80;;;;;;;;;;512811;28;1144;-72
2024/01/29 01:13:31;;;;;;;8.43;6.00;;;;;;;;;;513314;28;820;-72
2024/01/29 01:13:46;;;;;;;8.33;6.20;;;;;;;;;;512948;28;1097;-70
2024/01/29 01:14:02;;;;;;;7.80;5.87;;;;;;;;;;513079;28;1351;-73
2024/01/29 01:14:17;;;;;;;7.32;5.43;;;;;;;;;;513503;28;891;-72
2024/01/29 01:14:33;;;;;;;7.20;5.40;;;;;;;;;;512907;28;1674;-72
2024/01/29 01:14:48;;;;;;;8.30;5.88;;;;;;;;;;512859;28;1132;-73
2024/01/29 01:15:04;;;;;;;8.50;5.93;;;;;;;;;;512737;28;1115;-73
2024/01/29 01:15:19;;;;;;;8.10;5.85;;;;;;;;;;512810;28;1192;-72
2024/01/29 01:15:34;;;;;;;8.45;6.07;;;;;;;;;;512414;28;1767;-72
2024/01/29 01:15:50;;;;;;;8.13;6.07;;;;;;;;;;513001;28;1479;-72
2024/01/29 01:16:05;;;;;;;8.60;6.23;;;;;;;;;;514999;28;840;-72
2024/01/29 01:16:20;;;;;;;9.15;6.57;;;;;;;;;;512546;28;1545;-72
2024/01/29 01:16:36;;;;;;;7.90;6.20;;;;;;;;;;514752;28;1450;-72
2024/01/29 01:16:51;;;;;;;8.20;6.33;;;;;;;;;;514062;28;1168;-72
2024/01/29 01:17:06;;;;;;;8.73;6.57;;;;;;;;;;515172;28;756;-72
2024/01/29 01:17:22;;;;;;;9.02;6.57;;;;;;;;;;512637;28;1407;-72
2024/01/29 01:17:37;;;;;;;9.67;6.77;;;;;;;;;;510451;28;1584;-72
2024/01/29 01:17:52;;;;;;;9.53;6.53;;;;;;;;;;510781;28;1293;-72
2024/01/29 01:18:07;;;;;;;9.18;6.50;;;;;;;;;;510717;28;1576;-72
2024/01/29 01:18:23;;;;;;;9.83;6.77;;;;;;;;;;513354;28;804;-72
2024/01/29 01:18:38;;;;;;;10.13;7.07;;;;;;;;;;514737;28;1159;-72
2024/01/29 01:18:54;;;;;;;9.90;7.20;;;;;;;;;;514893;28;1021;-70
2024/01/29 01:19:09;;;;;;;10.60;7.05;;;;;;;;;;514966;28;1211;-72
2024/01/29 01:19:25;;;;;;;11.40;7.10;;;;;;;;;;517246;28;787;-70
2024/01/29 01:19:40;;;;;;;10.23;7.10;;;;;;;;;;517061;28;1024;-72
2024/01/29 01:19:55;;;;;;;8.38;6.60;;;;;;;;;;516951;28;1159;-72
2024/01/29 01:20:11;;;;;;;8.07;6.10;;;;;;;;;;517213;28;840;-72
2024/01/29 01:20:26;;;;;;;9.18;6.25;;;;;;;;;;517190;28;843;-72
2024/01/29 01:20:41;;;;;;;9.43;6.60;;;;;;;;;;516627;28;1080;-72
2024/01/29 01:20:57;;;;;;;8.73;6.50;;;;;;;;;;516997;28;1092;-72
2024/01/29 01:21:12;;;;;;;9.33;6.60;;;;;;;;;;516743;28;1302;-72
2024/01/29 01:21:27;;;;;;;9.57;6.82;;;;;;;;;;516786;28;1364;-72
2024/01/29 01:21:42;;;;;;;9.20;7.00;;;;;;;;;;516769;28;1183;-72
2024/01/29 01:21:58;;;;;;;9.27;7.23;;;;;;;;;;516534;28;1156;-72
2024/01/29 01:22:14;;;;;;;9.63;7.03;;;;;;;;;;516878;28;890;-72
2024/01/29 01:22:29;;;;;;;9.52;6.70;;;;;;;;;;517249;28;1041;-72
2024/01/29 01:22:46;;;;;;;9.93;7.00;;;;;;;;;;515852;28;1859;-72
2024/01/29 01:23:01;;;;;;;9.52;6.90;;;;;;;;;;514624;28;776;-72
2024/01/29 01:23:17;;;;;;;8.43;6.63;;;;;;;;;;511865;28;1158;-72
2024/01/29 01:23:32;;;;;;;8.43;6.73;;;;;;;;;;511406;28;1379;-72
2024/01/29 01:23:47;;;;;;;9.20;7.03;;;;;;;;;;513241;28;1113;-72
2024/01/29 01:24:03;;;;;;;9.10;6.90;;;;;;;;;;512806;28;1230;-72
2024/01/29 01:24:18;;;;;;;9.18;6.80;;;;;;;;;;513064;28;840;-72
2024/01/29 01:24:33;;;;;;;9.73;7.07;;;;;;;;;;513033;28;832;-72
2024/01/29 01:24:48;;;;;;;9.50;7.00;;;;;;;;;;512731;28;1157;-73
2024/01/29 01:25:05;;;;;;;9.43;7.00;;;;;;;;;;512763;28;1049;-72
2024/01/29 01:25:20;;;;;;;9.25;7.00;;;;;;;;;;512992;28;1248;-72
2024/01/29 01:25:36;;;;;;;9.63;6.83;;;;;;;;;;515008;28;862;-70
2024/01/29 01:25:51;;;;;;;9.73;7.03;;;;;;;;;;513583;28;985;-71
2024/01/29 01:26:06;;;;;;;8.93;7.10;;;;;;;;;;515022;28;982;-72
2024/01/29 01:26:22;;;;;;;9.53;7.07;;;;;;;;;;515089;28;1298;-72
2024/01/29 01:26:37;;;;;;;9.60;7.03;;;;;;;;;;514720;28;1201;-72
2024/01/29 01:26:52;;;;;;;9.77;7.10;;;;;;;;;;514543;28;1188;-72
2024/01/29 01:27:07;;;;;;;9.33;6.90;;;;;;;;;;517005;28;998;-72
2024/01/29 01:27:23;;;;;;;8.70;6.87;;;;;;;;;;516918;28;1475;-72
2024/01/29 01:27:39;;;;;;;9.55;7.13;;;;;;;;;;516858;28;1001;-72
2024/01/29 01:27:54;;;;;;;9.02;7.00;;;;;;;;;;516990;28;957;-72
2024/01/29 01:28:09;;;;;;;7.87;6.63;;;;;;;;;;516892;28;1922;-72
2024/01/29 01:28:24;;;;;;;8.43;7.03;;;;;;;;;;517162;28;879;-72
2024/01/29 01:28:40;;;;;;;9.33;7.30;;;;;;;;;;516694;28;1270;-73
2024/01/29 01:28:55;;;;;;;9.95;7.10;;;;;;;;;;514907;28;1326;-72
2024/01/29 01:29:11;;;;;;;9.83;7.00;;;;;;;;;;514832;28;1046;-70
2024/01/29 01:29:26;;;;;;;9.70;6.93;;;;;;;;;;515057;28;1152;-70
2024/01/29 01:29:41;;;;;;;10.40;7.10;;;;;;;;;;514623;28;1221;-70
2024/01/29 01:29:56;;;;;;;10.70;7.40;;;;;;;;;;515098;28;1057;-72
2024/01/29 01:30:12;;;;;;;10.43;7.30;;;;;;;;;;513881;28;1790;-72
2024/01/29 01:30:27;;;;;;;9.57;7.13;;;;;;;;;;514253;28;823;-72
2024/01/29 01:30:42;;;;;;;9.30;7.03;;;;;;;;;;515879;28;1101;-73
2024/01/29 01:30:57;;;;;;;8.40;6.50;;;;;;;;;;519011;28;1076;-70
2024/01/29 01:31:13;;;;;;;8.10;6.28;;;;;;;;;;518780;28;919;-70
2024/01/29 01:31:28;;;;;;;9.83;6.90;;;;;;;;;;515083;28;1341;-70
2024/01/29 01:31:43;;;;;;;10.37;7.30;;;;;;;;;;516848;28;1004;-70
2024/01/29 01:31:59;;;;;;;9.93;7.35;;;;;;;;;;516327;28;1247;-71
2024/01/29 01:32:14;;;;;;;9.77;7.27;;;;;;;;;;516966;28;815;-71
2024/01/29 01:32:29;;;;;;;9.43;7.13;;;;;;;;;;517182;28;840;-70
2024/01/29 01:32:44;;;;;;;9.87;7.57;;;;;;;;;;516462;28;1632;-71
2024/01/29 01:33:00;;;;;;;9.80;7.65;;;;;;;;;;516670;28;1902;-70
2024/01/29 01:33:15;;;;;;;9.57;7.33;;;;;;;;;;514793;28;1898;-70
2024/01/29 01:33:30;;;;;;;10.47;7.50;;;;;;;;;;514446;28;1153;-71
2024/01/29 01:33:46;;;;;;;11.05;7.60;;;;;;;;;;514963;28;1065;-71
2024/01/29 01:34:01;;;;;;;10.13;7.30;;;;;;;;;;514836;28;1300;-70
2024/01/29 01:34:16;;;;;;;8.83;6.90;;;;;;;;;;514824;28;1132;-71
2024/01/29 01:34:32;;;;;;;8.90;6.93;;;;;;;;;;515205;28;923;-71
2024/01/29 01:34:47;;;;;;;9.13;6.90;;;;;;;;;;514931;28;1069;-73
2024/01/29 01:35:02;;;;;;;10.23;7.00;;;;;;;;;;515358;28;962;-73
2024/01/29 01:35:18;;;;;;;10.52;7.28;;;;;;;;;;516719;28;950;-72
2024/01/29 01:35:33;;;;;;;10.57;7.40;;;;;;;;;;516707;28;1289;-72
2024/01/29 01:35:48;;;;;;;11.80;7.70;;;;;;;;;;516855;28;1037;-72